Elkhart, Indiana
Current Conditions -  °F | °C
As of 1:53 AM on Thursday 18 Dec 2014 (Local Time) from KGSH Reporting Station
Overcast Overcast  
Wind Chill: 18°   Ceiling: 2000
Heat Index: 27°   Visibility: 10mi
Dew Point: 21°   Wind: 9mph
Humidity: 78%   Direction: 270°W
Pressure: 30.24"   Gusts: NA
Location:  41.69°N, 85.97°W
Report Text: KGSH 180653Z AUTO 27008KT 10SM OVC020 M03/M06 A3024 RMK AO2 SLP250 T10281061
Loading
Personal Weather Stations






























Interactive Weather Map New forecast layout! Learn more

10-Day Weather Forecast

Advertisements
Track Severe Weather on mobile